createdAt,value
2023-05-09T00:00:43.061Z,23.72
2023-05-09T00:03:14.860Z,23.73
2023-05-09T00:05:43.809Z,23.73
2023-05-09T00:08:12.295Z,23.73
2023-05-09T00:10:40.822Z,23.73
2023-05-09T00:13:09.072Z,23.73
2023-05-09T00:15:37.330Z,23.73
2023-05-09T00:18:05.593Z,23.73
2023-05-09T00:20:34.275Z,23.74
2023-05-09T00:23:02.696Z,23.74
2023-05-09T00:25:30.755Z,23.75
2023-05-09T00:27:59.124Z,23.75
2023-05-09T00:30:27.653Z,23.75
2023-05-09T00:32:55.865Z,23.76
2023-05-09T00:35:24.367Z,23.77
2023-05-09T00:37:52.724Z,23.77
2023-05-09T00:40:20.938Z,23.76
2023-05-09T00:42:49.306Z,23.77
2023-05-09T00:45:17.441Z,23.79
2023-05-09T00:47:45.884Z,23.79
2023-05-09T00:50:14.038Z,23.79
2023-05-09T00:52:42.203Z,23.79
2023-05-09T00:55:10.352Z,23.79
2023-05-09T00:57:38.438Z,23.79
2023-05-09T01:00:13.606Z,23.79
2023-05-09T01:02:42.861Z,23.79
2023-05-09T01:05:11.765Z,23.78
2023-05-09T01:07:48.919Z,23.79
2023-05-09T01:10:29.484Z,23.80
2023-05-09T01:13:24.612Z,23.80
2023-05-09T01:16:09.500Z,23.79
2023-05-09T01:18:45.013Z,23.79
2023-05-09T01:21:17.765Z,23.80
2023-05-09T01:23:50.354Z,23.80
2023-05-09T01:26:43.138Z,23.81
2023-05-09T01:29:30.551Z,23.81
2023-05-09T01:31:59.121Z,23.81
2023-05-09T01:34:27.508Z,23.81
2023-05-09T01:36:57.611Z,23.81
2023-05-09T01:39:26.293Z,23.82
2023-05-09T01:41:55.331Z,23.83
2023-05-09T01:44:23.561Z,23.84
2023-05-09T01:46:53.021Z,23.83
2023-05-09T01:49:21.271Z,23.84
2023-05-09T01:51:49.636Z,23.84
2023-05-09T01:54:18.233Z,23.83
2023-05-09T01:56:46.270Z,23.84
2023-05-09T01:59:16.355Z,23.83
2023-05-09T02:01:45.910Z,23.84
2023-05-09T02:04:16.202Z,23.84
2023-05-09T02:06:45.245Z,23.84
2023-05-09T02:09:14.097Z,23.84
2023-05-09T02:14:58.878Z,24.01
2023-05-09T02:17:29.628Z,24.23
2023-05-09T02:19:57.895Z,24.16
2023-05-09T02:22:26.077Z,24.09
2023-05-09T02:24:54.868Z,24.05
2023-05-09T02:27:22.913Z,24.01
2023-05-09T02:29:52.154Z,23.98
2023-05-09T02:32:25.879Z,23.95
2023-05-09T02:34:54.428Z,23.93
2023-05-09T02:37:23.117Z,23.91
2023-05-09T02:39:51.261Z,23.89
2023-05-09T02:42:22.919Z,23.88
2023-05-09T02:44:54.801Z,23.86
2023-05-09T02:47:23.200Z,23.85
2023-05-09T02:49:52.036Z,23.84
2023-05-09T02:52:19.996Z,23.83
2023-05-09T02:54:48.621Z,23.83
2023-05-09T02:57:16.766Z,23.82
2023-05-09T02:59:44.829Z,23.81
2023-05-09T03:02:13.111Z,23.81
2023-05-09T03:04:42.311Z,23.80
2023-05-09T03:07:10.600Z,23.80
2023-05-09T03:09:40.984Z,23.80
2023-05-09T03:12:09.591Z,23.80
2023-05-09T03:14:38.460Z,23.80
2023-05-09T03:17:07.479Z,23.81
2023-05-09T03:19:36.579Z,23.81
2023-05-09T03:22:04.946Z,23.81
2023-05-09T03:24:35.165Z,23.82
2023-05-09T03:27:04.077Z,23.82
2023-05-09T03:29:32.132Z,23.84
2023-05-09T03:32:00.183Z,23.86
2023-05-09T03:34:28.273Z,23.91
2023-05-09T03:36:57.283Z,23.96
2023-05-09T03:39:27.078Z,24.01
2023-05-09T03:41:57.611Z,24.07
2023-05-09T03:44:26.351Z,24.13
2023-05-09T03:46:54.987Z,24.19
2023-05-09T03:49:23.263Z,24.25
2023-05-09T03:51:53.568Z,24.32
2023-05-09T03:54:22.257Z,24.39
2023-05-09T03:56:52.068Z,24.46
2023-05-09T03:59:20.956Z,24.53
2023-05-09T04:01:49.598Z,24.58
2023-05-09T04:04:18.329Z,24.65
2023-05-09T04:06:46.829Z,24.71
2023-05-09T04:09:17.144Z,24.77
2023-05-09T04:11:47.152Z,24.83
2023-05-09T04:14:16.653Z,24.88
2023-05-09T04:16:44.925Z,24.93
2023-05-09T04:19:13.406Z,24.99
2023-05-09T04:21:41.436Z,25.04
2023-05-09T04:24:09.769Z,25.10
2023-05-09T04:26:46.523Z,25.15
2023-05-09T04:29:17.487Z,25.19
2023-05-09T04:31:50.747Z,25.23
2023-05-09T04:34:19.764Z,25.28
2023-05-09T04:36:47.962Z,25.33
2023-05-09T04:39:16.305Z,25.37
2023-05-09T04:41:51.400Z,25.42
2023-05-09T04:44:19.819Z,25.46
2023-05-09T04:46:47.996Z,25.50
2023-05-09T04:49:16.170Z,25.53
2023-05-09T04:51:44.365Z,25.56
2023-05-09T04:54:12.409Z,25.55
2023-05-09T04:56:41.303Z,25.51
2023-05-09T04:59:09.474Z,25.48
2023-05-09T05:01:37.543Z,25.42
2023-05-09T05:04:05.844Z,25.36
2023-05-09T05:06:34.319Z,25.30
2023-05-09T05:09:02.720Z,25.23
2023-05-09T05:11:31.368Z,25.18
2023-05-09T05:14:00.988Z,25.17
2023-05-09T05:16:29.317Z,25.18
2023-05-09T05:18:58.231Z,25.21
2023-05-09T05:21:26.733Z,25.25
2023-05-09T05:23:54.936Z,25.30
2023-05-09T05:26:23.051Z,25.35
2023-05-09T05:28:56.048Z,25.40
2023-05-09T05:31:24.701Z,25.44
2023-05-09T05:33:52.934Z,25.49
2023-05-09T05:36:21.585Z,25.54
2023-05-09T05:38:49.984Z,25.58
2023-05-09T05:41:18.335Z,25.62
2023-05-09T05:43:46.945Z,25.68
2023-05-09T05:46:16.193Z,25.72
2023-05-09T05:48:44.613Z,25.77
2023-05-09T05:51:12.771Z,25.80
2023-05-09T05:53:41.883Z,25.82
2023-05-09T05:56:10.455Z,25.80
2023-05-09T05:58:38.656Z,25.76
2023-05-09T06:01:07.720Z,25.73
2023-05-09T06:03:36.146Z,25.70
2023-05-09T06:06:06.985Z,25.66
2023-05-09T06:08:35.115Z,25.61
2023-05-09T06:11:03.374Z,25.57
2023-05-09T06:13:31.456Z,25.59
2023-05-09T06:16:14.959Z,25.61
2023-05-09T06:18:49.397Z,25.65
2023-05-09T06:21:17.381Z,25.70
2023-05-09T06:26:17.749Z,25.78
2023-05-09T06:28:45.981Z,25.83
2023-05-09T06:31:14.308Z,25.87
2023-05-09T06:33:42.445Z,25.92
2023-05-09T06:36:11.056Z,25.96
2023-05-09T06:38:39.198Z,26.00
2023-05-09T06:41:07.385Z,26.03
2023-05-09T06:43:35.654Z,26.07
2023-05-09T06:46:04.145Z,26.09
2023-05-09T06:48:32.529Z,26.11
2023-05-09T06:51:00.667Z,26.13
2023-05-09T06:53:29.089Z,26.15
2023-05-09T06:55:57.219Z,26.15
2023-05-09T06:58:25.599Z,26.10
2023-05-09T07:00:54.298Z,26.00
2023-05-09T07:03:22.460Z,25.91
2023-05-09T07:05:51.961Z,25.86
2023-05-09T07:08:20.240Z,25.83
2023-05-09T07:10:48.309Z,25.81
2023-05-09T07:13:16.531Z,25.78
2023-05-09T07:15:45.053Z,25.76
2023-05-09T07:18:13.377Z,25.74
2023-05-09T07:20:41.823Z,25.73
2023-05-09T07:23:09.928Z,25.71
2023-05-09T07:25:38.578Z,25.69
2023-05-09T07:28:07.069Z,25.67
2023-05-09T07:30:35.029Z,25.65
2023-05-09T07:33:03.366Z,25.63
2023-05-09T07:35:31.732Z,25.61
2023-05-09T07:37:59.755Z,25.60
2023-05-09T07:40:27.930Z,25.59
2023-05-09T07:42:57.146Z,25.58
2023-05-09T07:45:25.396Z,25.56
2023-05-09T07:47:53.828Z,25.54
2023-05-09T07:50:23.484Z,25.53
2023-05-09T07:52:53.018Z,25.52
2023-05-09T07:55:21.320Z,25.49
2023-05-09T07:57:49.483Z,25.34
2023-05-09T08:00:19.857Z,25.12
2023-05-09T08:02:47.987Z,25.00
2023-05-09T08:05:16.762Z,24.94
2023-05-09T08:07:45.656Z,24.91
2023-05-09T08:10:13.781Z,24.90
2023-05-09T08:12:41.987Z,24.93
2023-05-09T08:15:10.743Z,24.95
2023-05-09T08:17:39.014Z,24.96
2023-05-09T08:20:09.159Z,24.98
2023-05-09T08:22:39.356Z,24.99
2023-05-09T08:25:08.666Z,25.00
2023-05-09T08:27:37.346Z,25.02
2023-05-09T08:30:06.691Z,25.03
2023-05-09T08:32:34.749Z,25.04
2023-05-09T08:35:02.923Z,25.04
2023-05-09T08:37:31.366Z,25.06
2023-05-09T08:39:59.993Z,25.06
2023-05-09T08:42:28.155Z,25.08
2023-05-09T08:44:56.300Z,25.09
2023-05-09T08:47:24.403Z,25.10
2023-05-09T08:49:52.947Z,25.11
2023-05-09T08:52:21.549Z,25.10
2023-05-09T08:54:49.636Z,25.07
2023-05-09T08:57:17.695Z,24.99
2023-05-09T08:59:46.674Z,24.88
2023-05-09T09:02:15.287Z,24.80
2023-05-09T09:04:45.324Z,24.77
2023-05-09T09:07:14.182Z,24.76
2023-05-09T09:09:46.569Z,24.71
2023-05-09T09:12:16.040Z,24.71
2023-05-09T09:14:49.749Z,24.73
2023-05-09T09:17:20.106Z,24.77
2023-05-09T09:19:49.874Z,24.80
2023-05-09T09:22:19.266Z,24.83
2023-05-09T09:24:47.472Z,24.85
2023-05-09T09:27:15.628Z,24.87
2023-05-09T09:29:43.887Z,24.89
2023-05-09T09:32:12.168Z,24.92
2023-05-09T09:34:40.540Z,24.93
2023-05-09T09:37:09.123Z,24.97
2023-05-09T09:39:37.401Z,25.00
2023-05-09T09:42:12.028Z,25.03
2023-05-09T09:44:40.226Z,25.05
2023-05-09T09:47:10.007Z,25.08
2023-05-09T09:49:38.082Z,25.10
2023-05-09T09:52:06.093Z,25.09
2023-05-09T09:54:34.164Z,24.98
2023-05-09T09:57:02.204Z,24.85
2023-05-09T09:59:30.156Z,24.78
2023-05-09T10:02:12.767Z,24.71
2023-05-09T10:04:42.906Z,24.61
2023-05-09T10:07:14.666Z,24.49
2023-05-09T10:09:44.279Z,24.46
2023-05-09T10:12:15.000Z,24.47
2023-05-09T10:14:43.056Z,24.52
2023-05-09T10:17:12.722Z,24.57
2023-05-09T10:19:44.367Z,24.61
2023-05-09T10:22:12.829Z,24.65
2023-05-09T10:24:46.399Z,24.69
2023-05-09T10:27:14.332Z,24.71
2023-05-09T10:29:46.224Z,24.74
2023-05-09T10:32:48.571Z,24.78
2023-05-09T10:35:17.801Z,24.80
2023-05-09T10:37:46.169Z,24.81
2023-05-09T10:40:15.788Z,24.84
2023-05-09T10:42:44.462Z,24.86
2023-05-09T10:45:13.271Z,24.89
2023-05-09T10:47:42.691Z,24.91
2023-05-09T10:50:15.733Z,24.93
2023-05-09T10:53:09.420Z,24.94
2023-05-09T10:55:55.606Z,24.86
2023-05-09T10:58:27.494Z,24.74
2023-05-09T11:00:57.462Z,24.66
2023-05-09T11:03:26.983Z,24.59
2023-05-09T11:05:58.654Z,24.53
2023-05-09T11:08:26.995Z,24.49
2023-05-09T11:10:56.624Z,24.50
2023-05-09T11:13:25.903Z,24.51
2023-05-09T11:15:54.317Z,24.53
2023-05-09T11:18:22.377Z,24.54
2023-05-09T11:20:51.984Z,24.56
2023-05-09T11:23:20.459Z,24.57
2023-05-09T11:25:49.467Z,24.58
2023-05-09T11:28:30.506Z,24.59
2023-05-09T11:31:16.060Z,24.60
2023-05-09T11:33:45.782Z,24.60
2023-05-09T11:36:20.719Z,24.61
2023-05-09T11:38:49.132Z,24.62
2023-05-09T11:41:17.607Z,24.63
2023-05-09T11:43:45.777Z,24.64
2023-05-09T11:46:13.818Z,24.64
2023-05-09T11:48:42.430Z,24.64
2023-05-09T11:51:18.515Z,24.64
2023-05-09T11:53:50.073Z,24.65
2023-05-09T11:56:19.343Z,24.65
2023-05-09T11:58:50.987Z,24.64
2023-05-09T12:01:19.606Z,24.65
2023-05-09T12:03:47.868Z,24.65
2023-05-09T12:06:17.885Z,24.66
2023-05-09T12:08:46.556Z,24.67
2023-05-09T12:11:15.334Z,24.67
2023-05-09T12:13:51.034Z,24.68
2023-05-09T12:16:20.097Z,24.68
2023-05-09T12:18:52.845Z,24.67
2023-05-09T12:21:21.848Z,24.68
2023-05-09T12:23:51.752Z,24.68
2023-05-09T12:26:22.693Z,24.68
2023-05-09T12:28:50.681Z,24.68
2023-05-09T12:31:18.829Z,24.68
2023-05-09T12:33:47.142Z,24.68
2023-05-09T12:36:16.442Z,24.68
2023-05-09T12:38:54.860Z,24.69
2023-05-09T12:41:35.460Z,24.69
2023-05-09T12:44:08.013Z,24.69
2023-05-09T12:46:37.541Z,24.68
2023-05-09T12:49:06.277Z,24.69
2023-05-09T12:51:35.102Z,24.70
2023-05-09T12:54:04.733Z,24.70
2023-05-09T12:56:34.474Z,24.70
2023-05-09T12:59:03.068Z,24.71
2023-05-09T13:01:31.413Z,24.71
2023-05-09T13:04:06.859Z,24.71
2023-05-09T13:06:36.061Z,24.71
2023-05-09T13:09:06.643Z,24.71
2023-05-09T13:11:37.892Z,24.72
2023-05-09T13:14:06.274Z,24.72
2023-05-09T13:16:35.039Z,24.74
2023-05-09T13:19:05.575Z,24.74
2023-05-09T13:21:34.478Z,24.75
2023-05-09T13:24:03.843Z,24.76
2023-05-09T13:26:32.243Z,24.77
2023-05-09T13:29:00.487Z,24.77
2023-05-09T13:31:29.020Z,24.79
2023-05-09T13:33:57.239Z,24.80
2023-05-09T13:36:25.416Z,24.81
2023-05-09T13:38:53.487Z,24.83
2023-05-09T13:41:23.963Z,24.84
2023-05-09T13:43:52.820Z,24.85
2023-05-09T13:46:21.214Z,24.85
2023-05-09T13:48:49.439Z,24.87
2023-05-09T13:51:17.576Z,24.87
2023-05-09T13:53:45.829Z,24.88
2023-05-09T13:56:14.113Z,24.89
2023-05-09T13:58:42.568Z,24.88
2023-05-09T14:01:10.713Z,24.88
2023-05-09T14:03:39.008Z,24.88
2023-05-09T14:06:09.676Z,24.88
2023-05-09T14:08:37.952Z,24.88
2023-05-09T14:11:07.783Z,24.88
2023-05-09T14:13:35.801Z,24.88
2023-05-09T14:16:05.437Z,24.88
2023-05-09T14:18:33.622Z,24.88
2023-05-09T14:21:01.988Z,24.88
2023-05-09T14:23:30.137Z,24.87
2023-05-09T14:25:58.620Z,24.88
2023-05-09T14:28:27.091Z,24.87
2023-05-09T14:30:55.464Z,24.88
2023-05-09T14:33:24.462Z,24.88
2023-05-09T14:35:52.547Z,24.88
2023-05-09T14:38:21.644Z,24.87
2023-05-09T14:40:49.791Z,24.86
2023-05-09T14:43:18.483Z,24.86
2023-05-09T14:45:46.550Z,24.85
2023-05-09T14:48:16.235Z,24.84
2023-05-09T14:50:44.677Z,24.84
2023-05-09T14:53:13.116Z,24.84
2023-05-09T14:55:41.290Z,24.83
2023-05-09T14:58:09.679Z,24.83
2023-05-09T15:00:38.779Z,24.83
2023-05-09T15:03:06.886Z,24.83
2023-05-09T15:05:35.108Z,24.83
2023-05-09T15:08:04.103Z,24.83
2023-05-09T15:10:33.118Z,24.83
2023-05-09T15:13:02.306Z,24.82
2023-05-09T15:15:32.113Z,24.82
2023-05-09T15:18:02.411Z,24.83
2023-05-09T15:20:30.395Z,24.82
2023-05-09T15:23:00.286Z,24.82
2023-05-09T15:25:28.733Z,24.82
2023-05-09T15:27:56.966Z,24.81
2023-05-09T15:30:25.650Z,24.80
2023-05-09T15:32:54.391Z,24.80
2023-05-09T15:35:22.614Z,24.81
2023-05-09T15:37:50.798Z,24.80
2023-05-09T15:40:18.905Z,24.80
2023-05-09T15:42:48.671Z,24.80
2023-05-09T15:45:17.755Z,24.80
2023-05-09T15:47:45.978Z,24.80
2023-05-09T15:50:14.680Z,24.79
2023-05-09T15:52:43.414Z,24.78
2023-05-09T15:55:13.285Z,24.78
2023-05-09T15:57:41.393Z,24.78
2023-05-09T16:00:11.133Z,24.77
2023-05-09T16:02:44.376Z,24.77
2023-05-09T16:05:13.186Z,24.77
2023-05-09T16:07:43.606Z,24.76
2023-05-09T16:10:12.239Z,24.76
2023-05-09T16:12:40.382Z,24.75
2023-05-09T16:15:09.150Z,24.75
2023-05-09T16:17:37.648Z,24.75
2023-05-09T16:20:06.798Z,24.74
2023-05-09T16:22:35.001Z,24.74
2023-05-09T16:25:03.110Z,24.73
2023-05-09T16:27:31.152Z,24.72
2023-05-09T16:29:59.519Z,24.72
2023-05-09T16:32:28.009Z,24.71
2023-05-09T16:34:56.295Z,24.71
2023-05-09T16:37:24.487Z,24.70
2023-05-09T16:39:52.733Z,24.69
2023-05-09T16:42:21.300Z,24.69
2023-05-09T16:44:49.832Z,24.69
2023-05-09T16:47:18.158Z,24.68
2023-05-09T16:49:46.691Z,24.68
2023-05-09T16:52:15.861Z,24.68
2023-05-09T16:54:44.053Z,24.68
2023-05-09T16:57:12.389Z,24.68
2023-05-09T16:59:40.776Z,24.68
2023-05-09T17:02:08.948Z,24.67
2023-05-09T17:04:37.894Z,24.67
2023-05-09T17:07:07.064Z,24.66
2023-05-09T17:09:35.337Z,24.64
2023-05-09T17:12:03.623Z,24.65
2023-05-09T17:14:31.602Z,24.66
2023-05-09T17:17:00.445Z,24.68
2023-05-09T17:19:28.548Z,24.72
2023-05-09T17:21:58.967Z,24.78
2023-05-09T17:24:26.979Z,24.84
2023-05-09T17:26:56.226Z,24.89
2023-05-09T17:29:24.485Z,24.95
2023-05-09T17:31:52.810Z,25.01
2023-05-09T17:34:21.419Z,25.06
2023-05-09T17:36:49.575Z,25.11
2023-05-09T17:39:17.817Z,25.16
2023-05-09T17:41:45.967Z,25.22
2023-05-09T17:44:14.111Z,25.26
2023-05-09T17:46:42.329Z,25.30
2023-05-09T17:49:11.360Z,25.33
2023-05-09T17:51:39.478Z,25.36
2023-05-09T17:54:07.587Z,25.38
2023-05-09T17:56:35.792Z,25.41
2023-05-09T17:59:03.797Z,25.42
2023-05-09T18:01:31.781Z,25.44
2023-05-09T18:03:59.959Z,25.46
2023-05-09T18:06:29.080Z,25.46
2023-05-09T18:08:57.215Z,25.47
2023-05-09T18:11:26.327Z,25.47
2023-05-09T18:13:54.271Z,25.48
2023-05-09T18:16:22.455Z,25.49
2023-05-09T18:18:50.744Z,25.50
2023-05-09T18:21:18.709Z,25.51
2023-05-09T18:23:46.746Z,25.51
2023-05-09T18:26:14.785Z,25.52
2023-05-09T18:28:42.835Z,25.53
2023-05-09T18:31:12.426Z,25.54
2023-05-09T18:33:40.604Z,25.56
2023-05-09T18:36:10.285Z,25.57
2023-05-09T18:38:38.826Z,25.57
2023-05-09T18:41:08.032Z,25.58
2023-05-09T18:43:38.749Z,25.59
2023-05-09T18:46:07.619Z,25.60
2023-05-09T18:48:35.822Z,25.60
2023-05-09T18:51:04.600Z,25.60
2023-05-09T18:53:32.922Z,25.61
2023-05-09T18:56:01.469Z,25.62
2023-05-09T18:58:29.618Z,25.61
2023-05-09T19:00:57.643Z,25.61
2023-05-09T19:03:25.719Z,25.60
2023-05-09T19:05:54.468Z,25.59
2023-05-09T19:08:22.651Z,25.59
2023-05-09T19:10:51.038Z,25.61
2023-05-09T19:13:19.069Z,25.61
2023-05-09T19:15:47.507Z,25.60
2023-05-09T19:18:15.452Z,25.60
2023-05-09T19:20:43.409Z,25.60
2023-05-09T19:23:12.209Z,25.59
2023-05-09T19:25:40.803Z,25.60
2023-05-09T19:28:08.663Z,25.60
2023-05-09T19:30:36.629Z,25.60
2023-05-09T19:33:04.647Z,25.61
2023-05-09T19:35:32.593Z,25.61
2023-05-09T19:38:00.583Z,25.61
2023-05-09T19:40:28.810Z,25.60
2023-05-09T19:42:56.820Z,25.61
2023-05-09T19:45:25.286Z,25.63
2023-05-09T19:47:54.917Z,25.62
2023-05-09T19:50:23.345Z,25.62
2023-05-09T19:52:51.696Z,25.63
2023-05-09T19:55:19.614Z,25.64
2023-05-09T19:57:48.627Z,25.64
2023-05-09T20:00:18.255Z,25.64
2023-05-09T20:02:47.139Z,25.65
2023-05-09T20:05:15.245Z,25.65
2023-05-09T20:07:43.423Z,25.65
2023-05-09T20:10:12.823Z,25.65
2023-05-09T20:12:41.659Z,25.65
2023-05-09T20:15:10.129Z,25.65
2023-05-09T20:17:38.188Z,25.65
2023-05-09T20:20:06.777Z,25.65
2023-05-09T20:22:34.686Z,25.65
2023-05-09T20:25:02.794Z,25.64
2023-05-09T20:27:31.287Z,25.64
2023-05-09T20:29:59.451Z,25.63
2023-05-09T20:32:28.135Z,25.62
2023-05-09T20:34:56.311Z,25.62
2023-05-09T20:37:24.286Z,25.61
2023-05-09T20:39:52.409Z,25.60
2023-05-09T20:42:20.379Z,25.60
2023-05-09T20:44:49.744Z,25.60
2023-05-09T20:47:18.031Z,25.59
2023-05-09T20:49:46.092Z,25.59
2023-05-09T20:52:14.206Z,25.59
2023-05-09T20:54:42.423Z,25.58
2023-05-09T20:57:11.330Z,25.59
2023-05-09T20:59:39.809Z,25.58
2023-05-09T21:02:08.482Z,25.58
2023-05-09T21:04:36.595Z,25.57
2023-05-09T21:07:04.545Z,25.57
2023-05-09T21:09:32.514Z,25.57
2023-05-09T21:12:00.854Z,25.56
2023-05-09T21:14:28.887Z,25.57
2023-05-09T21:16:58.453Z,25.56
2023-05-09T21:19:26.601Z,25.56
2023-05-09T21:21:54.848Z,25.56
2023-05-09T21:24:22.826Z,25.57
2023-05-09T21:26:50.968Z,25.59
2023-05-09T21:29:18.861Z,25.60
2023-05-09T21:31:46.829Z,25.60
2023-05-09T21:34:14.811Z,25.61
2023-05-09T21:36:42.810Z,25.64
2023-05-09T21:39:10.986Z,25.65
2023-05-09T21:41:39.556Z,25.66
2023-05-09T21:44:07.853Z,25.67
2023-05-09T21:46:36.494Z,25.67
2023-05-09T21:49:04.610Z,25.68
2023-05-09T21:51:33.646Z,25.70
2023-05-09T21:54:01.624Z,25.71
2023-05-09T21:56:29.704Z,25.71
2023-05-09T21:58:57.710Z,25.72
2023-05-09T22:01:25.712Z,25.73
2023-05-09T22:03:54.089Z,25.74
2023-05-09T22:06:22.129Z,25.75
2023-05-09T22:08:51.216Z,25.75
2023-05-09T22:11:19.333Z,25.75
2023-05-09T22:13:47.412Z,25.75
2023-05-09T22:16:15.366Z,25.75
2023-05-09T22:18:43.429Z,25.75
2023-05-09T22:21:11.756Z,25.74
2023-05-09T22:23:39.687Z,25.74
2023-05-09T22:26:08.083Z,25.74
2023-05-09T22:28:36.954Z,25.74
2023-05-09T22:31:06.701Z,25.73
2023-05-09T22:33:34.813Z,25.73
2023-05-09T22:36:02.762Z,25.74
2023-05-09T22:38:30.666Z,25.75
2023-05-09T22:40:58.659Z,25.78
2023-05-09T22:43:28.856Z,25.79
2023-05-09T22:46:04.971Z,25.81
2023-05-09T22:48:32.919Z,25.81
2023-05-09T22:51:00.893Z,25.82
2023-05-09T22:53:29.146Z,25.82
2023-05-09T22:55:57.313Z,25.82
2023-05-09T22:58:26.463Z,25.82
2023-05-09T23:00:54.588Z,25.82
2023-05-09T23:03:23.234Z,25.82
2023-05-09T23:05:51.448Z,25.81
2023-05-09T23:08:19.761Z,25.80
2023-05-09T23:10:47.875Z,25.81
2023-05-09T23:13:16.086Z,25.80
2023-05-09T23:15:44.334Z,25.79
2023-05-09T23:18:12.542Z,25.79
2023-05-09T23:20:40.446Z,25.78
2023-05-09T23:23:08.384Z,25.77
2023-05-09T23:25:36.630Z,25.76
2023-05-09T23:28:04.840Z,25.75
2023-05-09T23:30:32.843Z,25.74
2023-05-09T23:33:00.749Z,25.73
2023-05-09T23:35:28.768Z,25.72
2023-05-09T23:37:56.794Z,25.73
2023-05-09T23:40:25.383Z,25.72
2023-05-09T23:42:53.320Z,25.70
2023-05-09T23:45:21.391Z,25.70
2023-05-09T23:47:49.492Z,25.70
2023-05-09T23:50:17.697Z,25.70
2023-05-09T23:52:49.321Z,25.68
2023-05-09T23:55:17.937Z,25.68
2023-05-09T23:57:46.068Z,25.67
